createdAt,value
2018-08-06T00:00:11.963Z,1019.25
2018-08-06T00:01:11.984Z,1019.26
2018-08-06T00:02:11.999Z,1019.23
2018-08-06T00:03:12.028Z,1019.25
2018-08-06T00:04:11.984Z,1019.23
2018-08-06T00:05:11.960Z,1019.22
2018-08-06T00:06:12.024Z,1019.19
2018-08-06T00:07:11.979Z,1019.22
2018-08-06T00:08:11.988Z,1019.23
2018-08-06T00:09:12.036Z,1019.27
2018-08-06T00:10:11.936Z,1019.22
2018-08-06T00:11:12.090Z,1019.24
2018-08-06T00:12:11.971Z,1019.22
2018-08-06T00:13:11.921Z,1019.23
2018-08-06T00:14:11.991Z,1019.23
2018-08-06T00:15:11.949Z,1019.22
2018-08-06T00:16:11.974Z,1019.22
2018-08-06T00:17:11.989Z,1019.17
2018-08-06T00:18:11.957Z,1019.19
2018-08-06T00:19:11.988Z,1019.17
2018-08-06T00:20:12.049Z,1019.19
2018-08-06T00:21:11.918Z,1019.22
2018-08-06T00:22:12.095Z,1019.21
2018-08-06T00:23:11.919Z,1019.19
2018-08-06T00:24:11.936Z,1019.21
2018-08-06T00:25:11.911Z,1019.18
2018-08-06T00:26:11.930Z,1019.2
2018-08-06T00:27:11.962Z,1019.17
2018-08-06T00:28:12.022Z,1019.19
2018-08-06T00:29:11.968Z,1019.16
2018-08-06T00:30:12.071Z,1019.19
2018-08-06T00:31:11.979Z,1019.15
2018-08-06T00:32:11.959Z,1019.11
2018-08-06T00:33:11.910Z,1019.14
2018-08-06T00:34:11.902Z,1019.11
2018-08-06T00:35:11.960Z,1019.15
2018-08-06T00:36:11.907Z,1019.15
2018-08-06T00:37:11.920Z,1019.17
2018-08-06T00:38:11.927Z,1019.1
2018-08-06T00:39:11.888Z,1019.09
2018-08-06T00:40:11.897Z,1019.09
2018-08-06T00:41:12.038Z,1019.07
2018-08-06T00:42:11.894Z,1019.09
2018-08-06T00:43:11.919Z,1019.12
2018-08-06T00:44:11.915Z,1019.09
2018-08-06T00:45:11.907Z,1019.11
2018-08-06T00:46:11.899Z,1019.1
2018-08-06T00:47:11.894Z,1019.1
2018-08-06T00:48:11.896Z,1019.06
2018-08-06T00:49:11.896Z,1019.12
2018-08-06T00:50:11.905Z,1019.07
2018-08-06T00:51:11.871Z,1019.12
2018-08-06T00:52:11.928Z,1019.09
2018-08-06T00:53:11.888Z,1019.06
2018-08-06T00:54:11.892Z,1019.08
2018-08-06T00:55:11.998Z,1019.1
2018-08-06T00:56:12.090Z,1019.06
2018-08-06T00:57:11.898Z,1019.1
2018-08-06T00:58:11.955Z,1019.11
2018-08-06T00:59:11.877Z,1019.07
2018-08-06T01:00:11.901Z,1019.09
2018-08-06T01:01:11.889Z,1019.14
2018-08-06T01:02:11.985Z,1019.09
2018-08-06T01:03:12.025Z,1019.12
2018-08-06T01:04:12.103Z,1019.14
2018-08-06T01:05:11.904Z,1019.18
2018-08-06T01:06:11.908Z,1019.14
2018-08-06T01:07:12.001Z,1019.17
2018-08-06T01:08:11.946Z,1019.18
2018-08-06T01:09:11.999Z,1019.16
2018-08-06T01:10:12.048Z,1019.17
2018-08-06T01:11:11.859Z,1019.17
2018-08-06T01:12:11.940Z,1019.16
2018-08-06T01:13:11.965Z,1019.17
2018-08-06T01:14:11.956Z,1019.18
2018-08-06T01:15:11.982Z,1019.18
2018-08-06T01:16:11.952Z,1019.16
2018-08-06T01:17:11.989Z,1019.17
2018-08-06T01:18:11.968Z,1019.18
2018-08-06T01:19:11.999Z,1019.18
2018-08-06T01:20:11.935Z,1019.17
2018-08-06T01:21:11.905Z,1019.14
2018-08-06T01:22:11.935Z,1019.13
2018-08-06T01:23:11.941Z,1019.17
2018-08-06T01:24:11.906Z,1019.2
2018-08-06T01:25:11.929Z,1019.16
2018-08-06T01:26:11.916Z,1019.11
2018-08-06T01:27:11.958Z,1019.11
2018-08-06T01:28:12.085Z,1019.17
2018-08-06T01:29:11.924Z,1019.18
2018-08-06T01:30:11.879Z,1019.19
2018-08-06T01:31:11.977Z,1019.19
2018-08-06T01:32:11.928Z,1019.19
2018-08-06T01:33:12.008Z,1019.15
2018-08-06T01:34:11.978Z,1019.21
2018-08-06T01:35:11.935Z,1019.18
2018-08-06T01:36:11.875Z,1019.18
2018-08-06T01:37:11.972Z,1019.19
2018-08-06T01:38:12.046Z,1019.16
2018-08-06T01:39:11.975Z,1019.17
2018-08-06T01:40:11.949Z,1019.13
2018-08-06T01:41:12.047Z,1019.13
2018-08-06T01:42:11.964Z,1019.12
2018-08-06T01:43:12.023Z,1019.17
2018-08-06T01:44:11.886Z,1019.15
2018-08-06T01:45:11.971Z,1019.17
2018-08-06T01:46:11.992Z,1019.15
2018-08-06T01:47:11.977Z,1019.18
2018-08-06T01:48:12.046Z,1019.11
2018-08-06T01:49:11.907Z,1019.09
2018-08-06T01:50:11.897Z,1019.15
2018-08-06T01:51:11.865Z,1019.19
2018-08-06T01:52:11.876Z,1019.11
2018-08-06T01:53:11.879Z,1019.16
2018-08-06T01:54:11.890Z,1019.14
2018-08-06T01:55:11.912Z,1019.12
2018-08-06T01:56:11.902Z,1019.19
2018-08-06T01:57:11.922Z,1019.2
2018-08-06T01:58:11.877Z,1019.14
2018-08-06T01:59:11.874Z,1019.11
2018-08-06T02:00:11.865Z,1019.07
2018-08-06T02:01:11.920Z,1019.05
2018-08-06T02:02:11.883Z,1019.04
2018-08-06T02:03:11.880Z,1019.04
2018-08-06T02:04:11.849Z,1019
2018-08-06T02:05:11.860Z,1019
2018-08-06T02:06:11.888Z,1018.99
2018-08-06T02:07:11.889Z,1019.01
2018-08-06T02:08:11.919Z,1018.98
2018-08-06T02:09:11.905Z,1018.97
2018-08-06T02:10:11.919Z,1019.01
2018-08-06T02:11:11.916Z,1019.01
2018-08-06T02:12:11.904Z,1018.95
2018-08-06T02:13:11.950Z,1018.94
2018-08-06T02:14:11.967Z,1019.01
2018-08-06T02:15:12.028Z,1018.99
2018-08-06T02:16:11.934Z,1018.91
2018-08-06T02:17:11.870Z,1018.95
2018-08-06T02:18:12.017Z,1018.91
2018-08-06T02:19:11.972Z,1018.98
2018-08-06T02:20:11.953Z,1018.94
2018-08-06T02:21:12.053Z,1018.89
2018-08-06T02:22:11.921Z,1018.89
2018-08-06T02:23:11.863Z,1018.86
2018-08-06T02:24:11.920Z,1018.88
2018-08-06T02:25:11.940Z,1018.85
2018-08-06T02:26:11.871Z,1018.78
2018-08-06T02:27:11.960Z,1018.77
2018-08-06T02:28:11.867Z,1018.76
2018-08-06T02:29:11.914Z,1018.76
2018-08-06T02:30:11.909Z,1018.74
2018-08-06T02:31:11.926Z,1018.75
2018-08-06T02:32:12.086Z,1018.76
2018-08-06T02:33:12.043Z,1018.72
2018-08-06T02:34:11.947Z,1018.76
2018-08-06T02:35:11.955Z,1018.69
2018-08-06T02:36:11.963Z,1018.76
2018-08-06T02:37:11.953Z,1018.69
2018-08-06T02:38:11.873Z,1018.69
2018-08-06T02:39:11.985Z,1018.71
2018-08-06T02:40:11.990Z,1018.71
2018-08-06T02:41:12.083Z,1018.7
2018-08-06T02:42:11.946Z,1018.68
2018-08-06T02:43:12.027Z,1018.69
2018-08-06T02:44:11.976Z,1018.72
2018-08-06T02:45:11.977Z,1018.76
2018-08-06T02:46:12.011Z,1018.73
2018-08-06T02:47:11.920Z,1018.7
2018-08-06T02:48:11.935Z,1018.64
2018-08-06T02:49:11.892Z,1018.68
2018-08-06T02:50:11.966Z,1018.7
2018-08-06T02:51:11.911Z,1018.65
2018-08-06T02:52:11.910Z,1018.68
2018-08-06T02:53:12.030Z,1018.65
2018-08-06T02:54:11.965Z,1018.69
2018-08-06T02:55:11.891Z,1018.72
2018-08-06T02:56:11.846Z,1018.69
2018-08-06T02:57:11.861Z,1018.6
2018-08-06T02:58:11.917Z,1018.6
2018-08-06T02:59:11.910Z,1018.58
2018-08-06T03:00:12.011Z,1018.6
2018-08-06T03:01:11.966Z,1018.61
2018-08-06T03:02:11.981Z,1018.58
2018-08-06T03:03:11.881Z,1018.55
2018-08-06T03:04:11.865Z,1018.58
2018-08-06T03:05:11.871Z,1018.57
2018-08-06T03:06:12.220Z,1018.58
2018-08-06T03:07:11.884Z,1018.54
2018-08-06T03:08:11.906Z,1018.5
2018-08-06T03:09:11.866Z,1018.5
2018-08-06T03:10:11.884Z,1018.55
2018-08-06T03:11:11.910Z,1018.53
2018-08-06T03:12:11.873Z,1018.56
2018-08-06T03:13:11.875Z,1018.59
2018-08-06T03:14:11.876Z,1018.55
2018-08-06T03:15:11.869Z,1018.54
2018-08-06T03:16:11.871Z,1018.54
2018-08-06T03:17:11.885Z,1018.54
2018-08-06T03:18:11.880Z,1018.52
2018-08-06T03:19:11.901Z,1018.51
2018-08-06T03:20:11.840Z,1018.53
2018-08-06T03:21:11.847Z,1018.52
2018-08-06T03:22:11.860Z,1018.57
2018-08-06T03:23:11.896Z,1018.56
2018-08-06T03:24:11.847Z,1018.57
2018-08-06T03:25:11.859Z,1018.57
2018-08-06T03:26:11.953Z,1018.49
2018-08-06T03:27:11.993Z,1018.52
2018-08-06T03:28:11.868Z,1018.54
2018-08-06T03:29:11.905Z,1018.57
2018-08-06T03:30:11.854Z,1018.58
2018-08-06T03:31:11.956Z,1018.58
2018-08-06T03:32:11.851Z,1018.6
2018-08-06T03:33:11.850Z,1018.56
2018-08-06T03:34:12.012Z,1018.58
2018-08-06T03:35:12.035Z,1018.61
2018-08-06T03:36:11.853Z,1018.56
2018-08-06T03:37:11.884Z,1018.56
2018-08-06T03:38:11.852Z,1018.56
2018-08-06T03:39:12.108Z,1018.61
2018-08-06T03:40:12.184Z,1018.64
2018-08-06T03:41:11.962Z,1018.64
2018-08-06T03:42:11.947Z,1018.66
2018-08-06T03:43:12.358Z,1018.67
2018-08-06T03:44:12.007Z,1018.66
2018-08-06T03:45:11.867Z,1018.65
2018-08-06T03:46:11.866Z,1018.68
2018-08-06T03:47:11.878Z,1018.66
2018-08-06T03:48:11.994Z,1018.65
2018-08-06T03:49:11.866Z,1018.68
2018-08-06T03:50:46.705Z,1018.67
2018-08-06T03:51:11.994Z,1018.66
2018-08-06T03:52:11.830Z,1018.65
2018-08-06T03:53:12.057Z,1018.65
2018-08-06T03:54:11.913Z,1018.68
2018-08-06T03:55:11.879Z,1018.67
2018-08-06T03:56:11.870Z,1018.62
2018-08-06T03:57:11.859Z,1018.61
2018-08-06T03:58:19.449Z,1018.63
2018-08-06T03:59:12.002Z,1018.58
2018-08-06T04:00:11.908Z,1018.62
2018-08-06T04:01:11.961Z,1018.61
2018-08-06T04:02:12.152Z,1018.61
2018-08-06T04:03:11.914Z,1018.61
2018-08-06T04:04:12.001Z,1018.6
2018-08-06T04:05:12.048Z,1018.62
2018-08-06T04:06:11.888Z,1018.66
2018-08-06T04:07:12.001Z,1018.64
2018-08-06T04:08:11.931Z,1018.67
2018-08-06T04:09:11.939Z,1018.7
2018-08-06T04:10:11.863Z,1018.71
2018-08-06T04:11:11.867Z,1018.69
2018-08-06T04:12:11.913Z,1018.7
2018-08-06T04:13:11.913Z,1018.72
2018-08-06T04:14:11.897Z,1018.71
2018-08-06T04:15:11.927Z,1018.77
2018-08-06T04:16:11.954Z,1018.75
2018-08-06T04:17:12.039Z,1018.77
2018-08-06T04:18:11.970Z,1018.77
2018-08-06T04:19:11.907Z,1018.74
2018-08-06T04:20:11.959Z,1018.79
2018-08-06T04:21:11.997Z,1018.78
2018-08-06T04:22:11.903Z,1018.8
2018-08-06T04:23:11.965Z,1018.78
2018-08-06T04:24:11.897Z,1018.81
2018-08-06T04:25:11.929Z,1018.78
2018-08-06T04:26:11.932Z,1018.82
2018-08-06T04:27:11.873Z,1018.78
2018-08-06T04:28:11.879Z,1018.83
2018-08-06T04:29:11.899Z,1018.81
2018-08-06T04:30:11.902Z,1018.83
2018-08-06T04:31:11.908Z,1018.84
2018-08-06T04:32:11.915Z,1018.86
2018-08-06T04:33:12.038Z,1018.85
2018-08-06T04:34:11.923Z,1018.86
2018-08-06T04:35:11.951Z,1018.82
2018-08-06T04:36:11.964Z,1018.86
2018-08-06T04:37:12.039Z,1018.8
2018-08-06T04:38:11.904Z,1018.81
2018-08-06T04:39:11.966Z,1018.83
2018-08-06T04:40:12.089Z,1018.86
2018-08-06T04:41:11.911Z,1018.78
2018-08-06T04:42:12.098Z,1018.78
2018-08-06T04:43:11.996Z,1018.78
2018-08-06T04:44:12.013Z,1018.84
2018-08-06T04:45:11.957Z,1018.79
2018-08-06T04:46:11.936Z,1018.79
2018-08-06T04:47:12.030Z,1018.82
2018-08-06T04:48:12.016Z,1018.8
2018-08-06T04:49:11.932Z,1018.76
2018-08-06T04:50:11.934Z,1018.85
2018-08-06T04:51:11.991Z,1018.8
2018-08-06T04:52:11.985Z,1018.83
2018-08-06T04:53:12.002Z,1018.82
2018-08-06T04:54:11.914Z,1018.84
2018-08-06T04:55:11.947Z,1018.83
2018-08-06T04:56:11.968Z,1018.84
2018-08-06T04:57:11.962Z,1018.84
2018-08-06T04:58:11.978Z,1018.85
2018-08-06T04:59:12.015Z,1018.86
2018-08-06T05:00:12.060Z,1018.9
2018-08-06T05:01:11.947Z,1018.89
2018-08-06T05:02:11.913Z,1018.88
2018-08-06T05:03:11.920Z,1018.93
2018-08-06T05:04:12.077Z,1018.92
2018-08-06T05:05:11.960Z,1018.92
2018-08-06T05:06:11.929Z,1018.91
2018-08-06T05:07:11.950Z,1018.92
2018-08-06T05:08:11.950Z,1018.94
2018-08-06T05:09:11.964Z,1018.96
2018-08-06T05:10:11.998Z,1018.97
2018-08-06T05:11:12.000Z,1018.98
2018-08-06T05:12:11.921Z,1019.01
2018-08-06T05:13:11.991Z,1019
2018-08-06T05:14:11.986Z,1019.02
2018-08-06T05:15:11.954Z,1018.96
2018-08-06T05:16:12.098Z,1019.04
2018-08-06T05:17:12.269Z,1019.04
2018-08-06T05:18:11.949Z,1019.06
2018-08-06T05:19:11.976Z,1019.06
2018-08-06T05:20:11.977Z,1019.06
2018-08-06T05:21:11.957Z,1019.06
2018-08-06T05:22:11.936Z,1019.08
2018-08-06T05:23:12.097Z,1019.04
2018-08-06T05:24:12.015Z,1019.08
2018-08-06T05:25:12.009Z,1019.07
2018-08-06T05:26:11.979Z,1019.04
2018-08-06T05:27:11.987Z,1019.07
2018-08-06T05:28:11.977Z,1019.06
2018-08-06T05:29:12.045Z,1019.05
2018-08-06T05:30:11.997Z,1019.09
2018-08-06T05:31:12.046Z,1019.1
2018-08-06T05:32:12.019Z,1019.13
2018-08-06T05:33:11.980Z,1019.06
2018-08-06T05:34:11.966Z,1019.14
2018-08-06T05:35:11.975Z,1019.07
2018-08-06T05:36:12.018Z,1019.09
2018-08-06T05:37:11.981Z,1019.09
2018-08-06T05:38:12.050Z,1019.11
2018-08-06T05:39:12.007Z,1019.1
2018-08-06T05:40:12.083Z,1019.1
2018-08-06T05:41:12.073Z,1019.1
2018-08-06T05:42:11.982Z,1019.11
2018-08-06T05:43:11.985Z,1019.08
2018-08-06T05:44:12.243Z,1019.12
2018-08-06T05:45:12.030Z,1019.12
2018-08-06T05:46:12.007Z,1019.1
2018-08-06T05:47:12.013Z,1019.12
2018-08-06T05:48:12.106Z,1019.14
2018-08-06T05:49:12.149Z,1019.09
2018-08-06T05:50:12.030Z,1019.12
2018-08-06T05:51:11.997Z,1019.09
2018-08-06T05:52:12.053Z,1019.07
2018-08-06T05:53:12.039Z,1019.1
2018-08-06T05:54:12.017Z,1019.07
2018-08-06T05:55:12.040Z,1019.09
2018-08-06T05:56:12.017Z,1019.04
2018-08-06T05:57:12.047Z,1019.08
2018-08-06T05:58:12.079Z,1019.05
2018-08-06T05:59:12.187Z,1019.05
2018-08-06T06:00:12.000Z,1018.99
2018-08-06T06:01:12.190Z,1018.97
2018-08-06T06:02:13.521Z,1018.94
2018-08-06T06:03:12.194Z,1018.95
2018-08-06T06:04:12.086Z,1018.96
2018-08-06T06:05:12.799Z,1018.94
2018-08-06T06:06:12.792Z,1019.02
2018-08-06T06:07:12.959Z,1018.96
2018-08-06T06:08:12.267Z,1018.98
2018-08-06T06:09:12.019Z,1018.95
2018-08-06T06:10:12.023Z,1018.95
2018-08-06T06:11:12.111Z,1018.98
2018-08-06T06:12:12.073Z,1018.93
2018-08-06T06:13:12.035Z,1018.96
2018-08-06T06:14:12.053Z,1019
2018-08-06T06:15:12.047Z,1019.03
2018-08-06T06:16:17.011Z,1019.01
2018-08-06T06:17:12.306Z,1019.01
2018-08-06T06:18:12.041Z,1019.05
2018-08-06T06:19:12.165Z,1019.07
2018-08-06T06:20:12.033Z,1019.07
2018-08-06T06:21:14.658Z,1019.08
2018-08-06T06:22:12.012Z,1019.08
2018-08-06T06:23:12.206Z,1019.05
2018-08-06T06:24:12.056Z,1019.02
2018-08-06T06:25:12.110Z,1019.02
2018-08-06T06:26:12.069Z,1019.01
2018-08-06T06:27:12.202Z,1019.01
2018-08-06T06:28:12.199Z,1018.99
2018-08-06T06:29:12.064Z,1019.02
2018-08-06T06:30:12.038Z,1019.03
2018-08-06T06:31:12.085Z,1019.01
2018-08-06T06:32:12.212Z,1019.01
2018-08-06T06:33:12.069Z,1019
2018-08-06T06:34:12.212Z,1018.95
2018-08-06T06:35:12.094Z,1018.97
2018-08-06T06:36:12.089Z,1018.94
2018-08-06T06:37:12.097Z,1018.97
2018-08-06T06:38:12.082Z,1018.91
2018-08-06T06:39:12.100Z,1018.95
2018-08-06T06:40:12.071Z,1018.98
2018-08-06T06:41:12.278Z,1018.93
2018-08-06T06:42:12.062Z,1018.93
2018-08-06T06:43:12.230Z,1018.91
2018-08-06T06:44:12.064Z,1018.93
2018-08-06T06:45:12.114Z,1018.92
2018-08-06T06:46:12.095Z,1018.91
2018-08-06T06:47:12.137Z,1018.9
2018-08-06T06:48:12.104Z,1018.92
2018-08-06T06:49:12.298Z,1018.86
2018-08-06T06:50:12.101Z,1018.9
2018-08-06T06:51:12.172Z,1018.9
2018-08-06T06:52:12.100Z,1018.89
2018-08-06T06:53:12.090Z,1018.87
2018-08-06T06:54:12.083Z,1018.86
2018-08-06T06:55:12.083Z,1018.86
2018-08-06T06:56:12.107Z,1018.89
2018-08-06T06:57:12.112Z,1018.88
2018-08-06T06:58:12.123Z,1018.87
2018-08-06T06:59:12.109Z,1018.86
2018-08-06T07:00:12.151Z,1018.85
2018-08-06T07:01:12.100Z,1018.86
2018-08-06T07:02:12.091Z,1018.85
2018-08-06T07:03:12.087Z,1018.88
2018-08-06T07:04:12.089Z,1018.83
2018-08-06T07:05:12.111Z,1018.85
2018-08-06T07:06:12.096Z,1018.84
2018-08-06T07:07:12.139Z,1018.93
2018-08-06T07:08:12.100Z,1018.89
2018-08-06T07:09:12.201Z,1018.91
2018-08-06T07:10:12.153Z,1018.87
2018-08-06T07:11:12.171Z,1018.9
2018-08-06T07:12:12.119Z,1018.88
2018-08-06T07:13:12.113Z,1018.9
2018-08-06T07:14:12.268Z,1018.88
2018-08-06T07:15:12.174Z,1018.89
2018-08-06T07:16:12.192Z,1018.88
2018-08-06T07:17:12.115Z,1018.85
2018-08-06T07:18:12.247Z,1018.84
2018-08-06T07:19:12.343Z,1018.79
2018-08-06T07:20:12.221Z,1018.83
2018-08-06T07:21:12.128Z,1018.8
2018-08-06T07:22:12.137Z,1018.79
2018-08-06T07:23:12.325Z,1018.77
2018-08-06T07:24:12.118Z,1018.75
2018-08-06T07:25:12.097Z,1018.81
2018-08-06T07:26:12.141Z,1018.77
2018-08-06T07:27:12.123Z,1018.81
2018-08-06T07:28:12.125Z,1018.76
2018-08-06T07:29:12.209Z,1018.75
2018-08-06T07:30:12.159Z,1018.73
2018-08-06T07:31:12.147Z,1018.74
2018-08-06T07:32:12.160Z,1018.75
2018-08-06T07:33:12.200Z,1018.75
2018-08-06T07:34:12.368Z,1018.76
2018-08-06T07:35:12.104Z,1018.71
2018-08-06T07:36:12.252Z,1018.66
2018-08-06T07:37:12.193Z,1018.65
2018-08-06T07:38:12.131Z,1018.67
2018-08-06T07:39:12.127Z,1018.61
2018-08-06T07:40:12.261Z,1018.64
2018-08-06T07:41:12.205Z,1018.61
2018-08-06T07:42:12.314Z,1018.64
2018-08-06T07:43:12.252Z,1018.63
2018-08-06T07:44:12.117Z,1018.62
2018-08-06T07:45:12.160Z,1018.57
2018-08-06T07:46:12.386Z,1018.55
2018-08-06T07:47:12.193Z,1018.61
2018-08-06T07:48:12.168Z,1018.54
2018-08-06T07:49:12.212Z,1018.54
2018-08-06T07:50:12.223Z,1018.53
2018-08-06T07:51:12.119Z,1018.55
2018-08-06T07:52:12.144Z,1018.53
2018-08-06T07:53:12.180Z,1018.51
2018-08-06T07:54:12.355Z,1018.43
2018-08-06T07:55:12.174Z,1018.49
2018-08-06T07:56:12.144Z,1018.46
2018-08-06T07:57:12.183Z,1018.44
2018-08-06T07:58:12.254Z,1018.46
2018-08-06T07:59:12.415Z,1018.43
2018-08-06T08:00:12.147Z,1018.49
2018-08-06T08:01:12.131Z,1018.45
2018-08-06T08:02:12.151Z,1018.47
2018-08-06T08:03:12.152Z,1018.44
2018-08-06T08:04:12.217Z,1018.39
2018-08-06T08:05:12.170Z,1018.41
2018-08-06T08:06:12.181Z,1018.36
2018-08-06T08:07:12.154Z,1018.35
2018-08-06T08:08:12.161Z,1018.4
2018-08-06T08:09:12.178Z,1018.38
2018-08-06T08:10:12.169Z,1018.36
2018-08-06T08:11:12.185Z,1018.32
2018-08-06T08:12:12.183Z,1018.3
2018-08-06T08:13:12.160Z,1018.3
2018-08-06T08:14:12.167Z,1018.32
2018-08-06T08:15:12.167Z,1018.31
2018-08-06T08:16:12.203Z,1018.3
2018-08-06T08:17:12.184Z,1018.33
2018-08-06T08:18:12.177Z,1018.34
2018-08-06T08:19:12.165Z,1018.33
2018-08-06T08:20:12.619Z,1018.3
2018-08-06T08:21:12.216Z,1018.32
2018-08-06T08:22:12.174Z,1018.28
2018-08-06T08:23:12.235Z,1018.3
2018-08-06T08:24:12.204Z,1018.34
2018-08-06T08:25:12.196Z,1018.29
2018-08-06T08:26:12.305Z,1018.35
2018-08-06T08:27:12.335Z,1018.3
2018-08-06T08:28:12.225Z,1018.29
2018-08-06T08:29:12.307Z,1018.32
2018-08-06T08:30:12.185Z,1018.28
2018-08-06T08:31:12.264Z,1018.33
2018-08-06T08:32:12.263Z,1018.3
2018-08-06T08:33:12.238Z,1018.25
2018-08-06T08:34:12.214Z,1018.24
2018-08-06T08:35:12.478Z,1018.26
2018-08-06T08:36:12.375Z,1018.2
2018-08-06T08:37:12.236Z,1018.19
2018-08-06T08:38:12.245Z,1018.14
2018-08-06T08:39:12.199Z,1018.2
2018-08-06T08:40:12.260Z,1018.2
2018-08-06T08:41:12.239Z,1018.19
2018-08-06T08:42:12.349Z,1018.15
2018-08-06T08:43:13.113Z,1018.04
2018-08-06T08:44:12.216Z,1018.06
2018-08-06T08:45:12.475Z,1018.12
2018-08-06T08:46:12.288Z,1018.07
2018-08-06T08:47:12.274Z,1018.12
2018-08-06T08:48:12.245Z,1018.06
2018-08-06T08:49:12.300Z,1018.1
2018-08-06T08:50:12.485Z,1018.04
2018-08-06T08:51:12.230Z,1018.04
2018-08-06T08:52:12.301Z,1017.97
2018-08-06T08:53:12.231Z,1017.93
2018-08-06T08:54:12.381Z,1017.91
2018-08-06T08:55:12.278Z,1017.9
2018-08-06T08:56:12.292Z,1017.88
2018-08-06T08:57:12.472Z,1017.85
2018-08-06T08:58:12.480Z,1017.85
2018-08-06T08:59:12.236Z,1017.81
2018-08-06T09:00:12.238Z,1017.85
2018-08-06T09:01:12.248Z,1017.82
2018-08-06T09:02:12.239Z,1017.8
2018-08-06T09:03:12.263Z,1017.84
2018-08-06T09:04:12.238Z,1017.79
2018-08-06T09:05:12.249Z,1017.81
2018-08-06T09:06:12.268Z,1017.8
2018-08-06T09:07:12.304Z,1017.82
2018-08-06T09:08:12.329Z,1017.79
2018-08-06T09:09:12.240Z,1017.74
2018-08-06T09:10:12.253Z,1017.78
2018-08-06T09:11:12.363Z,1017.77
2018-08-06T09:12:12.334Z,1017.74
2018-08-06T09:13:12.313Z,1017.72
2018-08-06T09:14:12.583Z,1017.71
2018-08-06T09:15:12.317Z,1017.71
2018-08-06T09:16:12.260Z,1017.72
2018-08-06T09:17:12.293Z,1017.75
2018-08-06T09:18:12.257Z,1017.73
2018-08-06T09:19:12.266Z,1017.68
2018-08-06T09:20:12.289Z,1017.68
2018-08-06T09:21:12.480Z,1017.65
2018-08-06T09:22:12.274Z,1017.66
2018-08-06T09:23:12.276Z,1017.66
2018-08-06T09:24:12.273Z,1017.62
2018-08-06T09:25:12.318Z,1017.64
2018-08-06T09:26:12.282Z,1017.61
2018-08-06T09:27:12.282Z,1017.59
2018-08-06T09:28:12.285Z,1017.63
2018-08-06T09:29:12.294Z,1017.62
2018-08-06T09:30:12.268Z,1017.59
2018-08-06T09:31:12.328Z,1017.59
2018-08-06T09:32:12.294Z,1017.62
2018-08-06T09:33:12.299Z,1017.57
2018-08-06T09:34:12.249Z,1017.57
2018-08-06T09:35:12.265Z,1017.57
2018-08-06T09:36:12.268Z,1017.6
2018-08-06T09:37:12.358Z,1017.5
2018-08-06T09:38:12.310Z,1017.45
2018-08-06T09:39:12.301Z,1017.45
2018-08-06T09:40:12.316Z,1017.46
2018-08-06T09:41:12.369Z,1017.39
2018-08-06T09:42:12.358Z,1017.41
2018-08-06T09:43:12.294Z,1017.45
2018-08-06T09:44:12.373Z,1017.45
2018-08-06T09:45:12.336Z,1017.43
2018-08-06T09:46:12.355Z,1017.39
2018-08-06T09:47:12.590Z,1017.38
2018-08-06T09:48:12.289Z,1017.41
2018-08-06T09:49:12.271Z,1017.39
2018-08-06T09:50:12.407Z,1017.35
2018-08-06T09:51:12.393Z,1017.34
2018-08-06T09:52:12.295Z,1017.3
2018-08-06T09:53:12.339Z,1017.27
2018-08-06T09:54:12.341Z,1017.24
2018-08-06T09:55:12.297Z,1017.28
2018-08-06T09:56:12.290Z,1017.29
2018-08-06T09:57:12.718Z,1017.25
2018-08-06T09:58:12.299Z,1017.23
2018-08-06T09:59:12.343Z,1017.22
2018-08-06T10:00:12.763Z,1017.2
2018-08-06T10:01:12.280Z,1017.19
2018-08-06T10:02:12.333Z,1017.16
2018-08-06T10:03:12.308Z,1017.18
2018-08-06T10:04:13.114Z,1017.17
2018-08-06T10:05:12.327Z,1017.17
2018-08-06T10:06:12.905Z,1017.12
2018-08-06T10:07:12.300Z,1017.07
2018-08-06T10:08:12.474Z,1017.12
2018-08-06T10:09:12.306Z,1017.05
2018-08-06T10:10:12.751Z,1017.02
2018-08-06T10:11:12.967Z,1017.02
2018-08-06T10:12:12.499Z,1016.98
2018-08-06T10:13:12.356Z,1016.98
2018-08-06T10:14:12.370Z,1016.96
2018-08-06T10:15:12.312Z,1016.92
2018-08-06T10:16:12.330Z,1016.95
2018-08-06T10:17:12.327Z,1016.92
2018-08-06T10:18:12.346Z,1016.9
2018-08-06T10:19:12.716Z,1016.9
2018-08-06T10:20:12.425Z,1016.92
2018-08-06T10:21:12.464Z,1016.9
2018-08-06T10:22:12.465Z,1016.86
2018-08-06T10:23:12.413Z,1016.86
2018-08-06T10:24:12.384Z,1016.85
2018-08-06T10:25:12.360Z,1016.85
2018-08-06T10:26:12.349Z,1016.8
2018-08-06T10:27:12.377Z,1016.75
2018-08-06T10:28:12.485Z,1016.76
2018-08-06T10:29:12.542Z,1016.81
2018-08-06T10:30:12.429Z,1016.76
2018-08-06T10:31:12.410Z,1016.72
2018-08-06T10:32:12.348Z,1016.72
2018-08-06T10:33:12.378Z,1016.73
2018-08-06T10:34:12.353Z,1016.71
2018-08-06T10:35:12.391Z,1016.73
2018-08-06T10:36:12.343Z,1016.74
2018-08-06T10:37:12.380Z,1016.75
2018-08-06T10:38:12.391Z,1016.72
2018-08-06T10:39:12.419Z,1016.71
2018-08-06T10:40:12.434Z,1016.65
2018-08-06T10:41:12.341Z,1016.65
2018-08-06T10:42:12.431Z,1016.63
2018-08-06T10:43:12.372Z,1016.64
2018-08-06T10:44:12.356Z,1016.6
2018-08-06T10:45:12.425Z,1016.55
2018-08-06T10:46:12.375Z,1016.53
2018-08-06T10:47:12.369Z,1016.57
2018-08-06T10:48:12.507Z,1016.61
2018-08-06T10:49:12.371Z,1016.56
2018-08-06T10:50:12.385Z,1016.51
2018-08-06T10:51:12.364Z,1016.51
2018-08-06T10:52:12.726Z,1016.55
2018-08-06T10:53:12.541Z,1016.49
2018-08-06T10:54:12.663Z,1016.51
2018-08-06T10:55:12.555Z,1016.5
2018-08-06T10:56:12.463Z,1016.45
2018-08-06T10:57:12.394Z,1016.47
2018-08-06T10:58:12.606Z,1016.47
2018-08-06T10:59:12.532Z,1016.46
2018-08-06T11:00:12.389Z,1016.39
2018-08-06T11:01:12.801Z,1016.41
2018-08-06T11:02:12.388Z,1016.42
2018-08-06T11:03:12.492Z,1016.38
2018-08-06T11:04:12.518Z,1016.4
2018-08-06T11:05:12.940Z,1016.39
2018-08-06T11:06:12.455Z,1016.32
2018-08-06T11:07:12.489Z,1016.3
2018-08-06T11:08:12.529Z,1016.27
2018-08-06T11:09:12.457Z,1016.28
2018-08-06T11:10:12.774Z,1016.23
2018-08-06T11:11:12.439Z,1016.3
2018-08-06T11:12:12.568Z,1016.25
2018-08-06T11:13:12.467Z,1016.29
2018-08-06T11:14:12.681Z,1016.25
2018-08-06T11:15:12.457Z,1016.26
2018-08-06T11:16:12.485Z,1016.21
2018-08-06T11:17:12.922Z,1016.18
2018-08-06T11:18:12.432Z,1016.18
2018-08-06T11:19:12.623Z,1016.22
2018-08-06T11:20:12.582Z,1016.17
2018-08-06T11:21:12.545Z,1016.15
2018-08-06T11:22:12.473Z,1016.15
2018-08-06T11:23:12.447Z,1016.16
2018-08-06T11:24:12.454Z,1016.09
2018-08-06T11:25:12.473Z,1016.07
2018-08-06T11:26:12.490Z,1016.06
2018-08-06T11:27:12.484Z,1016.02
2018-08-06T11:28:12.718Z,1016.03
2018-08-06T11:29:12.521Z,1016.03
2018-08-06T11:30:12.475Z,1016
2018-08-06T11:31:12.453Z,1016.04
2018-08-06T11:32:12.486Z,1016
2018-08-06T11:33:12.440Z,1015.97
2018-08-06T11:34:12.436Z,1016
2018-08-06T11:35:12.415Z,1015.92
2018-08-06T11:36:12.565Z,1015.91
2018-08-06T11:37:12.499Z,1015.89
2018-08-06T11:38:12.442Z,1015.82
2018-08-06T11:39:12.453Z,1015.87
2018-08-06T11:40:12.450Z,1015.83
2018-08-06T11:41:12.425Z,1015.81
2018-08-06T11:42:12.439Z,1015.82
2018-08-06T11:43:12.518Z,1015.78
2018-08-06T11:44:12.455Z,1015.77
2018-08-06T11:45:12.451Z,1015.74
2018-08-06T11:46:12.486Z,1015.75
2018-08-06T11:47:12.461Z,1015.75
2018-08-06T11:48:12.474Z,1015.7
2018-08-06T11:49:12.525Z,1015.69
2018-08-06T11:50:12.633Z,1015.68
2018-08-06T11:51:12.490Z,1015.71
2018-08-06T11:52:12.558Z,1015.71
2018-08-06T11:53:12.472Z,1015.71
2018-08-06T11:54:12.492Z,1015.63
2018-08-06T11:55:13.604Z,1015.66
2018-08-06T11:56:12.477Z,1015.66
2018-08-06T11:57:12.460Z,1015.55
2018-08-06T11:58:12.801Z,1015.58
2018-08-06T11:59:12.493Z,1015.64
2018-08-06T12:00:12.440Z,1015.58
2018-08-06T12:01:12.455Z,1015.51
2018-08-06T12:02:12.482Z,1015.54
2018-08-06T12:03:12.514Z,1015.55
2018-08-06T12:04:12.488Z,1015.5
2018-08-06T12:05:12.454Z,1015.48
2018-08-06T12:06:12.464Z,1015.48
2018-08-06T12:07:12.541Z,1015.48
2018-08-06T12:08:12.502Z,1015.47